Time;durP1;ratioP1;P1;durP2;ratioP2;P2;SDS_P1;SDS_P2;PMS_P1;PMS_P2;Temp;Humidity;BMP_temperature;BMP_pressure;BME280_temperature;BME280_humidity;BME280_pressure;Samples;Min_cycle;Max_cycle;Signal;HPM_P1;HPM_P2
2021/12/10 00:00:30;;;;;;;41.75;15.98;;;;;;;;;;5010230;28;20098;-67
2021/12/10 00:02:59;;;;;;;44.67;16.42;;;;;;;;;;4991784;28;20351;-67
2021/12/10 00:05:30;;;;;;;47.28;15.10;;;;;;;;;;4991889;28;20343;-67
2021/12/10 00:07:55;;;;;;;42.65;16.05;;;;;;;;;;5009829;28;20347;-67
2021/12/10 00:10:25;;;;;;;43.47;17.23;;;;;;;;;;5009488;28;20048;-67
2021/12/10 00:12:52;;;;;;;39.63;15.70;;;;;;;;;;5009775;28;20331;-67
2021/12/10 00:15:27;;;;;;;42.08;15.95;;;;;;;;;;4991690;28;20332;-67
2021/12/10 00:17:55;;;;;;;44.83;15.27;;;;;;;;;;5009411;28;20032;-72
2021/12/10 00:20:24;;;;;;;41.75;14.38;;;;;;;;;;4992181;28;20538;-68
2021/12/10 00:22:56;;;;;;;40.97;16.03;;;;;;;;;;5010763;28;20358;-68
2021/12/10 00:25:33;;;;;;;42.53;15.07;;;;;;;;;;5009167;28;20287;-68
2021/12/10 00:27:59;;;;;;;38.85;14.82;;;;;;;;;;5009660;28;20021;-68
2021/12/10 00:30:28;;;;;;;39.08;15.15;;;;;;;;;;5009616;28;20497;-67
2021/12/10 00:33:03;;;;;;;40.35;13.68;;;;;;;;;;4991564;28;20293;-69
2021/12/10 00:35:31;;;;;;;39.80;13.73;;;;;;;;;;4992090;28;20465;-67
2021/12/10 00:37:58;;;;;;;32.70;13.10;;;;;;;;;;5009461;28;20020;-67
2021/12/10 00:40:25;;;;;;;40.05;13.85;;;;;;;;;;5009839;28;20308;-70
2021/12/10 00:42:51;;;;;;;35.03;14.02;;;;;;;;;;4991449;28;20385;-67
2021/12/10 00:45:17;;;;;;;40.60;14.05;;;;;;;;;;5009463;28;20385;-67
2021/12/10 00:47:43;;;;;;;37.90;14.15;;;;;;;;;;5008886;28;20386;-67
2021/12/10 00:50:12;;;;;;;37.25;14.13;;;;;;;;;;5008743;28;20029;-68
2021/12/10 00:52:38;;;;;;;32.08;12.90;;;;;;;;;;4991156;28;20127;-68
2021/12/10 00:55:05;;;;;;;36.53;13.35;;;;;;;;;;5008820;28;20036;-68
2021/12/10 00:57:30;;;;;;;37.50;14.05;;;;;;;;;;5008076;28;20484;-68
2021/12/10 00:59:56;;;;;;;34.97;13.88;;;;;;;;;;4972233;28;20500;-68
2021/12/10 01:02:23;;;;;;;40.90;14.38;;;;;;;;;;4981229;28;20420;-68
2021/12/10 01:04:57;;;;;;;47.42;14.65;;;;;;;;;;4951493;28;20376;-68
2021/12/10 01:07:25;;;;;;;44.15;15.23;;;;;;;;;;4969299;28;20393;-68
2021/12/10 01:09:52;;;;;;;37.20;14.90;;;;;;;;;;4952026;28;20374;-67
2021/12/10 01:12:23;;;;;;;35.85;14.50;;;;;;;;;;4970920;28;20351;-67
2021/12/10 01:28:35;;;;;;;38.30;14.30;;;;;;;;;;4940220;28;20395;-68
2021/12/10 01:31:01;;;;;;;37.35;13.15;;;;;;;;;;4969232;28;20440;-67
2021/12/10 01:33:26;;;;;;;37.00;13.88;;;;;;;;;;4969384;28;20432;-67
2021/12/10 01:35:54;;;;;;;36.65;13.10;;;;;;;;;;4970429;28;20346;-67
2021/12/10 01:38:21;;;;;;;36.53;14.30;;;;;;;;;;4969673;28;20483;-67
2021/12/10 01:40:49;;;;;;;41.17;13.15;;;;;;;;;;4951594;28;20623;-67
2021/12/10 01:43:22;;;;;;;31.95;12.50;;;;;;;;;;4935540;28;20364;-67
2021/12/10 01:45:51;;;;;;;36.80;14.23;;;;;;;;;;4952603;28;20399;-67
2021/12/10 01:48:24;;;;;;;37.38;15.30;;;;;;;;;;4951263;28;20502;-67
2021/12/10 01:50:51;;;;;;;35.08;14.23;;;;;;;;;;4951731;28;20400;-68
2021/12/10 01:53:20;;;;;;;39.00;14.32;;;;;;;;;;4969185;28;20456;-68
2021/12/10 01:55:49;;;;;;;35.70;12.90;;;;;;;;;;4969102;28;20348;-67
2021/12/10 01:58:18;;;;;;;34.30;13.20;;;;;;;;;;4972709;28;20463;-68
2021/12/10 02:00:57;;;;;;;33.85;13.18;;;;;;;;;;4988497;28;20561;-67
2021/12/10 02:03:23;;;;;;;37.10;12.40;;;;;;;;;;4988450;28;20331;-68
2021/12/10 02:05:51;;;;;;;32.13;13.15;;;;;;;;;;4988055;28;20343;-67
2021/12/10 02:08:17;;;;;;;28.85;12.13;;;;;;;;;;4988064;28;20436;-67
2021/12/10 02:10:42;;;;;;;36.72;13.25;;;;;;;;;;4991273;28;20371;-67
2021/12/10 02:13:07;;;;;;;32.55;12.52;;;;;;;;;;4992729;28;20033;-68
2021/12/10 02:15:33;;;;;;;33.00;12.57;;;;;;;;;;4975285;28;20389;-67
2021/12/10 02:18:02;;;;;;;30.00;12.73;;;;;;;;;;4974661;28;20313;-68
2021/12/10 02:20:35;;;;;;;36.85;12.57;;;;;;;;;;4992150;28;20436;-69
2021/12/10 02:23:04;;;;;;;37.00;13.95;;;;;;;;;;4974194;28;20412;-68
2021/12/10 02:25:31;;;;;;;34.28;13.23;;;;;;;;;;4992252;28;20412;-67
2021/12/10 02:27:57;;;;;;;30.58;13.63;;;;;;;;;;4991813;28;20122;-67
2021/12/10 02:30:25;;;;;;;30.52;11.55;;;;;;;;;;4991787;28;20523;-68
2021/12/10 02:32:51;;;;;;;29.20;12.27;;;;;;;;;;4973463;28;20477;-67
2021/12/10 02:35:16;;;;;;;32.95;12.82;;;;;;;;;;4973671;28;20714;-67
2021/12/10 02:37:44;;;;;;;33.17;13.43;;;;;;;;;;4992965;28;20336;-67
2021/12/10 02:40:11;;;;;;;31.05;12.23;;;;;;;;;;4993587;28;20044;-69
2021/12/10 02:42:37;;;;;;;32.75;12.80;;;;;;;;;;4991247;28;20103;-68
2021/12/10 02:45:05;;;;;;;33.28;11.45;;;;;;;;;;4991620;28;20442;-68
2021/12/10 02:47:30;;;;;;;30.92;11.75;;;;;;;;;;4974141;28;20344;-67
2021/12/10 02:49:56;;;;;;;25.38;11.38;;;;;;;;;;4973883;28;20352;-68
2021/12/10 02:52:23;;;;;;;30.52;11.65;;;;;;;;;;4991539;28;20416;-67
2021/12/10 02:54:49;;;;;;;33.40;13.20;;;;;;;;;;4974315;28;20104;-67
2021/12/10 02:57:17;;;;;;;36.83;13.50;;;;;;;;;;4991601;28;20090;-69
2021/12/10 02:59:43;;;;;;;28.70;12.27;;;;;;;;;;4990753;28;20379;-71
2021/12/10 03:02:13;;;;;;;28.77;10.80;;;;;;;;;;4973964;28;20427;-67
2021/12/10 03:04:39;;;;;;;30.38;11.82;;;;;;;;;;4973123;28;20368;-68
2021/12/10 03:07:11;;;;;;;31.00;12.10;;;;;;;;;;4973844;28;20096;-67
2021/12/10 03:09:37;;;;;;;32.92;13.35;;;;;;;;;;4990755;28;20505;-67
2021/12/10 03:12:03;;;;;;;31.42;12.13;;;;;;;;;;4973376;28;20374;-67
2021/12/10 03:14:33;;;;;;;28.02;11.00;;;;;;;;;;4973484;28;20406;-67
2021/12/10 03:17:03;;;;;;;28.10;11.70;;;;;;;;;;4990896;28;20380;-67
2021/12/10 03:19:28;;;;;;;30.52;12.02;;;;;;;;;;4992343;28;20344;-67
2021/12/10 03:21:54;;;;;;;27.20;11.82;;;;;;;;;;4990232;28;20309;-68
2021/12/10 03:24:22;;;;;;;27.85;12.35;;;;;;;;;;4973095;28;20451;-67
2021/12/10 03:26:51;;;;;;;27.00;10.63;;;;;;;;;;4991132;28;20424;-68
2021/12/10 03:29:18;;;;;;;25.35;10.50;;;;;;;;;;4972518;28;20287;-67
2021/12/10 03:31:44;;;;;;;32.90;11.60;;;;;;;;;;4990263;28;20397;-67
2021/12/10 03:34:10;;;;;;;28.38;12.40;;;;;;;;;;4972825;28;20124;-68
2021/12/10 03:36:35;;;;;;;25.50;11.45;;;;;;;;;;4972477;28;20420;-69
2021/12/10 03:39:01;;;;;;;26.00;11.85;;;;;;;;;;4990887;28;20131;-67
2021/12/10 03:41:26;;;;;;;25.50;11.63;;;;;;;;;;4990355;28;20356;-67
2021/12/10 03:43:53;;;;;;;27.13;10.82;;;;;;;;;;4990206;28;20348;-68
2021/12/10 03:46:19;;;;;;;30.20;12.77;;;;;;;;;;4973096;28;20358;-67
2021/12/10 03:48:45;;;;;;;28.50;11.15;;;;;;;;;;4991309;28;20388;-67
2021/12/10 03:51:18;;;;;;;27.50;12.05;;;;;;;;;;4990263;28;20390;-68
2021/12/10 03:53:44;;;;;;;25.55;12.00;;;;;;;;;;4990550;28;20422;-68
2021/12/10 03:56:13;;;;;;;30.20;12.32;;;;;;;;;;4990238;28;20321;-68
2021/12/10 03:58:39;;;;;;;26.52;11.55;;;;;;;;;;4989434;28;20045;-67
2021/12/10 04:01:06;;;;;;;23.10;10.68;;;;;;;;;;4972261;28;20490;-67
2021/12/10 04:03:32;;;;;;;26.50;10.77;;;;;;;;;;4991122;28;20438;-67
2021/12/10 04:05:57;;;;;;;22.63;10.25;;;;;;;;;;4990602;28;20504;-67
2021/12/10 04:08:23;;;;;;;27.92;10.80;;;;;;;;;;4991457;28;20412;-67
2021/12/10 04:10:49;;;;;;;29.17;12.63;;;;;;;;;;4972142;28;20348;-67
2021/12/10 04:13:18;;;;;;;22.15;10.32;;;;;;;;;;4988000;28;20466;-67
2021/12/10 04:15:44;;;;;;;25.17;10.25;;;;;;;;;;4989619;28;20090;-69
2021/12/10 04:18:10;;;;;;;24.38;11.35;;;;;;;;;;4971748;28;20033;-67
2021/12/10 04:20:36;;;;;;;27.85;10.93;;;;;;;;;;4972310;28;20459;-67
2021/12/10 04:23:05;;;;;;;27.98;12.00;;;;;;;;;;4989922;28;20455;-67
2021/12/10 04:25:31;;;;;;;29.10;11.77;;;;;;;;;;4989920;28;20482;-67
2021/12/10 04:28:00;;;;;;;28.30;11.48;;;;;;;;;;4989310;28;20375;-67
2021/12/10 04:30:26;;;;;;;24.85;10.35;;;;;;;;;;4971518;28;20447;-67
2021/12/10 04:32:52;;;;;;;31.88;13.27;;;;;;;;;;4971708;28;20436;-67
2021/12/10 04:35:18;;;;;;;36.28;11.75;;;;;;;;;;4990420;28;20344;-67
2021/12/10 04:37:49;;;;;;;27.35;11.95;;;;;;;;;;4971835;28;20340;-67
2021/12/10 04:40:17;;;;;;;30.08;10.98;;;;;;;;;;4971271;28;20443;-67
2021/12/10 04:42:44;;;;;;;22.10;11.20;;;;;;;;;;4989320;28;20509;-67
2021/12/10 04:45:09;;;;;;;30.48;11.85;;;;;;;;;;4971262;28;20500;-70
2021/12/10 04:47:35;;;;;;;28.35;11.82;;;;;;;;;;4971468;28;20319;-67
2021/12/10 04:50:04;;;;;;;25.27;10.98;;;;;;;;;;4971370;28;20412;-67
2021/12/10 04:52:29;;;;;;;23.60;11.53;;;;;;;;;;4990329;28;20028;-67
2021/12/10 04:54:54;;;;;;;29.02;12.15;;;;;;;;;;4989125;28;20047;-67
2021/12/10 04:57:20;;;;;;;27.23;11.13;;;;;;;;;;4988988;28;20451;-67
2021/12/10 04:59:46;;;;;;;21.30;9.93;;;;;;;;;;4989635;28;20399;-67
2021/12/10 05:02:14;;;;;;;31.30;11.77;;;;;;;;;;4988888;28;20029;-67
2021/12/10 05:04:42;;;;;;;32.40;12.95;;;;;;;;;;4971643;28;20435;-67
2021/12/10 05:07:09;;;;;;;25.23;10.85;;;;;;;;;;4971449;28;20436;-67
2021/12/10 05:09:34;;;;;;;29.70;12.05;;;;;;;;;;4971891;28;20549;-67
2021/12/10 05:12:01;;;;;;;30.10;10.85;;;;;;;;;;4989361;28;20346;-67
2021/12/10 05:14:27;;;;;;;26.80;11.40;;;;;;;;;;4971260;28;20408;-67
2021/12/10 05:16:54;;;;;;;26.73;11.27;;;;;;;;;;4970578;28;20454;-67
2021/12/10 05:19:23;;;;;;;24.73;10.80;;;;;;;;;;4988853;28;20491;-67
2021/12/10 05:21:49;;;;;;;26.38;10.45;;;;;;;;;;4988901;28;20517;-67
2021/12/10 05:24:16;;;;;;;25.23;10.88;;;;;;;;;;4970497;28;20329;-68
2021/12/10 05:26:41;;;;;;;25.15;10.57;;;;;;;;;;4989204;28;20424;-67
2021/12/10 05:29:07;;;;;;;32.95;12.57;;;;;;;;;;4970755;28;20451;-67
2021/12/10 05:31:35;;;;;;;27.08;11.35;;;;;;;;;;4970876;28;20431;-68
2021/12/10 05:34:03;;;;;;;28.00;11.65;;;;;;;;;;4990106;28;20382;-67
2021/12/10 05:36:28;;;;;;;26.83;12.20;;;;;;;;;;4971888;28;20467;-67
2021/12/10 05:38:54;;;;;;;26.02;10.68;;;;;;;;;;4989041;28;20535;-67
2021/12/10 05:41:20;;;;;;;26.98;11.63;;;;;;;;;;4988467;28;20427;-67
2021/12/10 05:43:45;;;;;;;27.48;10.65;;;;;;;;;;4970839;28;20447;-67
2021/12/10 05:46:12;;;;;;;28.10;12.35;;;;;;;;;;4992716;28;20467;-68
2021/12/10 05:48:39;;;;;;;22.85;9.90;;;;;;;;;;4974409;28;20545;-67
2021/12/10 05:51:04;;;;;;;24.27;10.75;;;;;;;;;;4992695;28;20472;-67
2021/12/10 05:53:30;;;;;;;25.90;10.07;;;;;;;;;;4991857;28;20542;-67
2021/12/10 05:55:55;;;;;;;33.78;13.20;;;;;;;;;;4992370;28;20365;-67
2021/12/10 05:58:21;;;;;;;24.90;11.60;;;;;;;;;;4969871;28;20432;-67
2021/12/10 06:01:02;;;;;;;29.52;12.13;;;;;;;;;;4972793;28;20344;-68
2021/12/10 06:03:27;;;;;;;23.40;11.60;;;;;;;;;;4954879;28;20352;-67
2021/12/10 06:05:52;;;;;;;26.13;12.52;;;;;;;;;;4972954;28;20029;-67
2021/12/10 06:08:18;;;;;;;30.27;12.13;;;;;;;;;;4972048;28;20452;-67
2021/12/10 06:10:44;;;;;;;26.73;11.50;;;;;;;;;;4954889;28;20448;-67
2021/12/10 06:13:09;;;;;;;28.30;13.32;;;;;;;;;;4971826;28;20447;-68
2021/12/10 06:15:36;;;;;;;22.38;10.60;;;;;;;;;;4954815;28;20527;-67
2021/12/10 06:18:01;;;;;;;28.17;13.15;;;;;;;;;;4972141;28;20353;-68
2021/12/10 06:20:30;;;;;;;26.23;11.02;;;;;;;;;;4972552;28;20052;-67
2021/12/10 06:22:57;;;;;;;26.42;11.68;;;;;;;;;;4972125;28;20091;-67
2021/12/10 06:25:23;;;;;;;23.45;10.77;;;;;;;;;;4954338;28;20033;-67
2021/12/10 06:27:48;;;;;;;25.92;11.65;;;;;;;;;;4971907;28;20033;-68
2021/12/10 06:30:17;;;;;;;31.50;13.02;;;;;;;;;;4972143;28;20512;-67
2021/12/10 06:32:43;;;;;;;;;;;;;;;;;;4954962;28;20403;-67
2021/12/10 06:35:09;;;;;;;31.63;12.25;;;;;;;;;;4971287;28;19909;-67
2021/12/10 06:37:36;;;;;;;25.88;11.77;;;;;;;;;;4971690;28;20044;-68
2021/12/10 06:40:04;;;;;;;26.85;11.77;;;;;;;;;;4972247;28;20356;-67
2021/12/10 06:42:30;;;;;;;25.42;11.52;;;;;;;;;;4953994;28;20386;-67
2021/12/10 06:44:55;;;;;;;33.83;12.80;;;;;;;;;;4953917;28;20352;-68
2021/12/10 06:47:20;;;;;;;26.70;12.02;;;;;;;;;;4954161;28;20436;-67
2021/12/10 06:49:46;;;;;;;25.95;11.32;;;;;;;;;;4971472;28;20412;-67
2021/12/10 06:52:11;;;;;;;29.23;11.93;;;;;;;;;;4972826;28;20427;-68
2021/12/10 06:54:39;;;;;;;29.50;11.38;;;;;;;;;;4973440;28;20455;-67
2021/12/10 06:57:06;;;;;;;26.80;13.20;;;;;;;;;;4971258;28;20378;-67
2021/12/10 06:59:32;;;;;;;25.23;11.60;;;;;;;;;;4964116;28;20399;-68
2021/12/10 07:01:57;;;;;;;31.25;12.70;;;;;;;;;;4972454;28;20321;-67
2021/12/10 07:04:22;;;;;;;24.20;11.00;;;;;;;;;;4971448;28;20436;-68
2021/12/10 07:06:49;;;;;;;24.33;11.40;;;;;;;;;;4971807;28;20352;-67
2021/12/10 07:09:19;;;;;;;24.10;11.27;;;;;;;;;;4953798;28;20383;-68
2021/12/10 07:11:45;;;;;;;31.45;12.32;;;;;;;;;;4970897;28;20502;-67
2021/12/10 07:14:10;;;;;;;32.05;13.70;;;;;;;;;;4970830;28;20430;-67
2021/12/10 07:16:35;;;;;;;33.38;13.18;;;;;;;;;;4970989;28;20429;-68
2021/12/10 07:19:03;;;;;;;26.40;12.57;;;;;;;;;;4971460;28;20305;-67
2021/12/10 07:21:31;;;;;;;30.55;12.10;;;;;;;;;;4953363;28;20329;-67
2021/12/10 07:23:57;;;;;;;29.17;13.05;;;;;;;;;;4953546;28;20348;-67
2021/12/10 07:26:23;;;;;;;27.20;12.85;;;;;;;;;;4970651;28;20057;-67
2021/12/10 07:28:48;;;;;;;28.52;12.38;;;;;;;;;;4953303;28;20383;-68
2021/12/10 07:31:14;;;;;;;30.65;13.43;;;;;;;;;;4969735;28;20413;-68
2021/12/10 07:33:40;;;;;;;26.10;11.50;;;;;;;;;;4972265;28;20304;-67
2021/12/10 07:36:07;;;;;;;29.05;12.32;;;;;;;;;;4971623;28;20425;-69
2021/12/10 07:38:33;;;;;;;30.95;13.15;;;;;;;;;;4952734;28;20316;-67
2021/12/10 07:40:59;;;;;;;27.00;13.52;;;;;;;;;;4953156;28;20345;-69
2021/12/10 07:43:24;;;;;;;29.63;12.40;;;;;;;;;;4971190;28;20333;-68
2021/12/10 07:45:51;;;;;;;29.35;13.48;;;;;;;;;;4970513;28;20396;-68
2021/12/10 07:48:20;;;;;;;32.15;13.48;;;;;;;;;;4970450;28;20091;-67
2021/12/10 07:50:53;;;;;;;25.75;12.40;;;;;;;;;;4953084;28;20420;-67
2021/12/10 07:53:20;;;;;;;28.38;11.73;;;;;;;;;;4969430;28;20468;-68
2021/12/10 07:55:46;;;;;;;26.58;12.07;;;;;;;;;;4968784;28;20391;-67
2021/12/10 07:58:11;;;;;;;28.55;13.77;;;;;;;;;;4972836;28;20502;-67
2021/12/10 08:00:40;;;;;;;30.65;13.23;;;;;;;;;;4972153;28;20414;-67
2021/12/10 08:03:05;;;;;;;28.80;12.40;;;;;;;;;;4991218;28;20502;-67
2021/12/10 08:05:31;;;;;;;28.48;12.57;;;;;;;;;;4989769;28;20539;-67
2021/12/10 08:07:56;;;;;;;26.85;11.85;;;;;;;;;;4971477;28;20368;-67
2021/12/10 08:10:23;;;;;;;25.73;12.13;;;;;;;;;;4972052;28;20317;-67
2021/12/10 08:12:48;;;;;;;35.58;12.85;;;;;;;;;;4972423;28;20525;-67
2021/12/10 08:15:14;;;;;;;27.35;11.98;;;;;;;;;;4991051;28;20025;-68
2021/12/10 08:17:40;;;;;;;30.95;12.38;;;;;;;;;;4971585;28;20362;-68
2021/12/10 08:20:08;;;;;;;29.17;13.75;;;;;;;;;;4971919;28;20371;-68
2021/12/10 08:22:34;;;;;;;27.35;12.02;;;;;;;;;;4971774;28;20093;-67
2021/12/10 08:24:59;;;;;;;24.02;12.85;;;;;;;;;;4989742;28;20029;-67
2021/12/10 08:27:25;;;;;;;28.10;12.82;;;;;;;;;;4973207;28;20457;-67
2021/12/10 08:29:51;;;;;;;29.52;12.32;;;;;;;;;;4972262;28;20454;-67
2021/12/10 08:32:20;;;;;;;24.48;11.45;;;;;;;;;;4971437;28;20033;-69
2021/12/10 08:34:47;;;;;;;30.17;12.35;;;;;;;;;;4989722;28;20436;-68
2021/12/10 08:37:13;;;;;;;30.02;11.73;;;;;;;;;;4971127;28;20403;-67
2021/12/10 08:39:39;;;;;;;28.83;13.20;;;;;;;;;;4971595;28;20340;-68
2021/12/10 08:42:05;;;;;;;24.45;11.52;;;;;;;;;;4989686;28;20021;-67
2021/12/10 08:44:30;;;;;;;26.13;12.70;;;;;;;;;;4971697;28;20420;-67
2021/12/10 08:46:56;;;;;;;26.50;12.40;;;;;;;;;;4971676;28;20458;-68
2021/12/10 08:49:21;;;;;;;26.77;11.95;;;;;;;;;;4971607;28;20458;-69
2021/12/10 08:51:50;;;;;;;24.02;11.43;;;;;;;;;;4990537;28;20344;-67
2021/12/10 08:54:17;;;;;;;;;;;;;;;;;;4971392;28;20363;-68
2021/12/10 08:56:44;;;;;;;27.23;11.73;;;;;;;;;;4971185;28;20253;-67
2021/12/10 08:59:10;;;;;;;31.92;12.27;;;;;;;;;;4988647;28;20447;-67
2021/12/10 09:01:39;;;;;;;22.65;10.30;;;;;;;;;;4971425;28;20021;-67
2021/12/10 09:04:07;;;;;;;28.17;12.48;;;;;;;;;;4971880;28;20324;-68
2021/12/10 09:06:35;;;;;;;28.15;12.63;;;;;;;;;;4858941;28;20376;-70
2021/12/10 09:09:01;;;;;;;20.88;11.02;;;;;;;;;;4987063;28;20578;-68
2021/12/10 09:11:27;;;;;;;26.83;11.95;;;;;;;;;;4988412;28;20428;-68
2021/12/10 09:13:53;;;;;;;28.65;13.00;;;;;;;;;;4989467;28;20408;-68
2021/12/10 09:16:25;;;;;;;28.35;12.35;;;;;;;;;;4988873;28;20469;-67
2021/12/10 09:18:54;;;;;;;28.45;12.15;;;;;;;;;;4988663;28;20497;-67
2021/12/10 09:21:20;;;;;;;24.98;12.00;;;;;;;;;;4971491;28;20431;-67
2021/12/10 09:23:47;;;;;;;29.25;10.75;;;;;;;;;;4971234;28;20554;-67
2021/12/10 09:26:14;;;;;;;25.58;11.95;;;;;;;;;;4988960;28;20032;-67
2021/12/10 09:28:42;;;;;;;24.95;11.88;;;;;;;;;;4988617;28;20412;-67
2021/12/10 09:31:08;;;;;;;24.80;12.00;;;;;;;;;;4971636;28;20463;-67
2021/12/10 09:33:34;;;;;;;25.95;10.95;;;;;;;;;;4988579;28;20344;-67
2021/12/10 09:35:59;;;;;;;22.98;12.02;;;;;;;;;;4988819;28;20348;-68
2021/12/10 09:38:25;;;;;;;22.85;11.55;;;;;;;;;;4971049;28;20476;-67
2021/12/10 09:40:58;;;;;;;22.25;11.63;;;;;;;;;;4988834;28;20325;-70
2021/12/10 09:43:24;;;;;;;23.60;11.68;;;;;;;;;;4990109;28;20420;-68
2021/12/10 09:45:52;;;;;;;26.48;10.82;;;;;;;;;;4970871;28;20390;-68
2021/12/10 09:48:18;;;;;;;21.88;11.32;;;;;;;;;;4987102;28;20451;-68
2021/12/10 09:50:51;;;;;;;23.30;11.10;;;;;;;;;;4988648;28;20052;-67
2021/12/10 09:53:17;;;;;;;29.40;12.13;;;;;;;;;;4989203;28;20102;-67
2021/12/10 09:55:44;;;;;;;26.95;11.73;;;;;;;;;;4972047;28;20444;-68
2021/12/10 09:58:09;;;;;;;21.20;11.40;;;;;;;;;;4970360;28;20490;-67
2021/12/10 10:00:38;;;;;;;23.90;11.02;;;;;;;;;;4988507;28;20420;-67
2021/12/10 10:03:06;;;;;;;24.02;11.32;;;;;;;;;;4971486;28;20343;-68
2021/12/10 10:05:33;;;;;;;26.17;10.73;;;;;;;;;;4989182;28;20446;-67
2021/12/10 10:08:02;;;;;;;24.90;11.98;;;;;;;;;;4988655;28;20025;-67
2021/12/10 10:10:29;;;;;;;23.27;10.07;;;;;;;;;;4990005;28;20037;-68
2021/12/10 10:12:55;;;;;;;25.08;11.23;;;;;;;;;;4989579;28;20351;-68
2021/12/10 10:15:27;;;;;;;20.25;11.25;;;;;;;;;;4988002;28;20064;-69
2021/12/10 10:17:55;;;;;;;23.77;11.20;;;;;;;;;;4970661;28;20628;-68
2021/12/10 10:20:21;;;;;;;24.33;10.40;;;;;;;;;;4988523;28;20544;-67
2021/12/10 10:22:47;;;;;;;21.58;10.88;;;;;;;;;;4970426;28;20315;-68
2021/12/10 10:25:14;;;;;;;22.38;10.73;;;;;;;;;;4988480;28;20404;-68
2021/12/10 10:27:41;;;;;;;22.05;11.35;;;;;;;;;;4988579;28;20490;-68
2021/12/10 10:30:14;;;;;;;25.45;10.68;;;;;;;;;;4988554;28;20479;-68
2021/12/10 10:32:44;;;;;;;25.13;11.57;;;;;;;;;;4974714;28;20020;-67
2021/12/10 10:35:16;;;;;;;28.42;11.38;;;;;;;;;;4974337;28;20487;-67
2021/12/10 10:37:42;;;;;;;19.25;10.05;;;;;;;;;;4991753;28;20419;-67
2021/12/10 10:40:11;;;;;;;23.15;10.52;;;;;;;;;;4991703;28;20025;-68
2021/12/10 10:42:36;;;;;;;19.30;10.45;;;;;;;;;;4973543;28;20420;-68
2021/12/10 10:45:07;;;;;;;23.80;10.50;;;;;;;;;;4973255;28;20414;-70
2021/12/10 10:47:32;;;;;;;24.50;11.85;;;;;;;;;;4974772;28;20423;-68
2021/12/10 10:50:11;;;;;;;20.77;10.45;;;;;;;;;;4973604;28;20389;-68
2021/12/10 10:52:39;;;;;;;22.23;11.23;;;;;;;;;;4990182;28;20448;-67
2021/12/10 10:55:10;;;;;;;24.35;9.88;;;;;;;;;;4973543;28;20444;-67
2021/12/10 10:57:36;;;;;;;21.67;10.63;;;;;;;;;;4992997;28;20427;-68
2021/12/10 11:00:22;;;;;;;23.40;11.70;;;;;;;;;;4956884;28;20381;-68
2021/12/10 11:02:52;;;;;;;25.00;11.20;;;;;;;;;;4971468;28;20436;-68
2021/12/10 11:05:20;;;;;;;22.40;11.73;;;;;;;;;;4971526;28;20330;-68
2021/12/10 11:07:49;;;;;;;23.73;11.48;;;;;;;;;;4971412;28;20333;-68
2021/12/10 11:10:19;;;;;;;;;;;;;;;;;;4954883;28;20049;-70
2021/12/10 11:12:45;;;;;;;22.17;9.75;;;;;;;;;;4969902;28;20032;-68
2021/12/10 11:15:15;;;;;;;21.77;10.07;;;;;;;;;;4971842;28;20429;-68
2021/12/10 11:17:53;;;;;;;23.48;9.82;;;;;;;;;;4953457;28;20352;-68
2021/12/10 11:20:25;;;;;;;24.08;10.90;;;;;;;;;;4953043;28;20348;-68
2021/12/10 11:22:58;;;;;;;20.33;10.10;;;;;;;;;;4953426;28;20429;-68
2021/12/10 11:25:26;;;;;;;24.70;9.98;;;;;;;;;;4953604;28;20373;-69
2021/12/10 11:28:05;;;;;;;20.47;9.83;;;;;;;;;;4970773;28;20336;-69
2021/12/10 11:30:31;;;;;;;19.52;9.13;;;;;;;;;;4971602;28;20306;-68
2021/12/10 11:33:10;;;;;;;18.35;9.45;;;;;;;;;;4953171;28;20026;-68
2021/12/10 11:35:42;;;;;;;24.60;11.23;;;;;;;;;;4952868;28;20364;-68
2021/12/10 11:38:22;;;;;;;19.48;9.32;;;;;;;;;;4971198;28;20393;-68
2021/12/10 11:40:53;;;;;;;21.58;9.50;;;;;;;;;;4953184;28;20340;-68
2021/12/10 11:49:26;;;;;;;20.10;8.75;;;;;;;;;;4954686;28;20396;-68
2021/12/10 11:52:14;;;;;;;19.65;8.57;;;;;;;;;;4970902;28;20403;-68
2021/12/10 11:54:50;;;;;;;18.38;9.05;;;;;;;;;;4971795;28;20487;-68
2021/12/10 11:57:22;;;;;;;20.17;9.02;;;;;;;;;;4971482;28;20484;-68
2021/12/10 11:59:55;;;;;;;20.40;9.18;;;;;;;;;;4985069;28;20049;-68
2021/12/10 12:02:23;;;;;;;17.83;8.55;;;;;;;;;;4972228;28;20416;-68
2021/12/10 12:04:58;;;;;;;18.02;8.73;;;;;;;;;;4989972;28;20340;-68
2021/12/10 12:07:36;;;;;;;19.58;9.73;;;;;;;;;;4971806;28;20325;-68
2021/12/10 12:10:23;;;;;;;18.33;9.48;;;;;;;;;;4990327;28;20021;-68
2021/12/10 12:12:53;;;;;;;14.18;7.90;;;;;;;;;;4971857;28;20446;-67
2021/12/10 12:15:34;;;;;;;17.13;9.30;;;;;;;;;;4989882;28;20033;-68
2021/12/10 12:18:14;;;;;;;14.57;7.57;;;;;;;;;;4989468;28;20021;-68
2021/12/10 12:20:44;;;;;;;19.17;9.90;;;;;;;;;;4989816;28;20328;-68
2021/12/10 12:26:10;;;;;;;18.23;8.57;;;;;;;;;;4989435;28;20376;-68
2021/12/10 12:28:46;;;;;;;19.63;7.90;;;;;;;;;;4971802;28;20324;-68
2021/12/10 12:31:23;;;;;;;13.38;7.15;;;;;;;;;;4989457;28;20118;-68
2021/12/10 12:33:49;;;;;;;20.63;9.10;;;;;;;;;;4990144;28;20025;-67
2021/12/10 12:36:15;;;;;;;14.02;7.50;;;;;;;;;;4990747;28;20485;-68
2021/12/10 12:38:44;;;;;;;16.05;8.07;;;;;;;;;;4989344;28;20033;-68
2021/12/10 12:41:17;;;;;;;16.70;8.57;;;;;;;;;;4989397;28;20443;-68
2021/12/10 12:43:45;;;;;;;14.70;7.40;;;;;;;;;;4971717;28;20029;-70
2021/12/10 12:46:11;;;;;;;13.32;7.28;;;;;;;;;;4971092;28;20056;-68
2021/12/10 12:48:53;;;;;;;15.80;8.07;;;;;;;;;;4989302;28;20409;-70
2021/12/10 12:51:20;;;;;;;15.35;7.57;;;;;;;;;;4971170;28;20475;-68
2021/12/10 12:53:47;;;;;;;16.73;8.10;;;;;;;;;;4989168;28;20387;-68
2021/12/10 12:56:14;;;;;;;16.33;7.95;;;;;;;;;;4988964;28;20416;-68
2021/12/10 12:59:03;;;;;;;15.13;7.40;;;;;;;;;;4965427;28;20448;-68
2021/12/10 13:01:45;;;;;;;18.00;8.60;;;;;;;;;;4968978;28;20602;-68
2021/12/10 13:04:20;;;;;;;13.40;6.75;;;;;;;;;;4951702;28;20348;-68
2021/12/10 13:06:46;;;;;;;13.52;8.02;;;;;;;;;;4952269;28;20090;-67
2021/12/10 13:09:16;;;;;;;15.45;6.45;;;;;;;;;;4969352;28;20419;-67
2021/12/10 13:11:56;;;;;;;19.25;8.20;;;;;;;;;;4951495;28;20384;-68
2021/12/10 13:14:31;;;;;;;12.57;6.65;;;;;;;;;;4968936;28;20377;-67
2021/12/10 13:17:00;;;;;;;15.27;7.57;;;;;;;;;;4952063;28;20025;-67
2021/12/10 13:19:29;;;;;;;14.68;6.90;;;;;;;;;;4951835;28;20428;-68
2021/12/10 13:21:58;;;;;;;;;;;;;;;;;;4951563;28;20502;-68
2021/12/10 13:24:24;;;;;;;;;;;;;;;;;;4968290;28;20217;-67
2021/12/10 13:26:49;;;;;;;12.10;5.95;;;;;;;;;;4968047;28;20380;-68
2021/12/10 13:29:16;;;;;;;10.68;6.45;;;;;;;;;;4951175;28;20464;-67
2021/12/10 13:31:43;;;;;;;11.10;6.28;;;;;;;;;;4968966;28;20432;-68
2021/12/10 13:34:08;;;;;;;13.57;6.07;;;;;;;;;;4969345;28;20443;-67
2021/12/10 13:36:34;;;;;;;14.60;7.47;;;;;;;;;;4969043;28;20433;-67
2021/12/10 13:39:00;;;;;;;14.45;6.70;;;;;;;;;;4968737;28;20428;-69
2021/12/10 13:41:28;;;;;;;12.95;5.97;;;;;;;;;;4952036;28;20207;-67
2021/12/10 13:44:03;;;;;;;14.02;6.88;;;;;;;;;;4951325;28;20437;-67
2021/12/10 13:46:33;;;;;;;17.25;6.65;;;;;;;;;;4968749;28;20464;-67
2021/12/10 13:49:00;;;;;;;15.15;6.40;;;;;;;;;;4968899;28;20432;-68
2021/12/10 13:51:34;;;;;;;16.23;7.45;;;;;;;;;;4968992;28;20401;-67
2021/12/10 13:54:05;;;;;;;11.10;6.15;;;;;;;;;;4968893;28;20128;-67
2021/12/10 13:56:31;;;;;;;14.90;6.53;;;;;;;;;;4969349;28;20344;-67
2021/12/10 13:58:59;;;;;;;13.60;6.82;;;;;;;;;;4976278;28;20415;-67
2021/12/10 14:01:33;;;;;;;14.80;6.18;;;;;;;;;;4987996;28;20048;-67
2021/12/10 14:04:14;;;;;;;15.05;6.93;;;;;;;;;;4988778;28;20451;-67
2021/12/10 14:07:07;;;;;;;14.63;6.95;;;;;;;;;;4991348;28;20509;-67
2021/12/10 14:09:53;;;;;;;15.38;7.07;;;;;;;;;;4974320;28;20321;-68
2021/12/10 14:12:34;;;;;;;13.73;6.68;;;;;;;;;;4974186;28;20482;-68
2021/12/10 14:15:18;;;;;;;15.70;7.65;;;;;;;;;;4991930;28;20089;-68
2021/12/10 14:17:43;;;;;;;27.35;9.15;;;;;;;;;;4992555;28;20048;-67
2021/12/10 14:20:23;;;;;;;23.67;9.70;;;;;;;;;;4991903;28;20033;-68
2021/12/10 14:22:54;;;;;;;25.23;11.43;;;;;;;;;;4991879;28;20415;-67
2021/12/10 14:25:46;;;;;;;27.13;10.80;;;;;;;;;;4992045;28;20359;-67
2021/12/10 14:28:20;;;;;;;33.95;12.27;;;;;;;;;;4991893;28;20509;-67
2021/12/10 14:30:49;;;;;;;33.80;12.18;;;;;;;;;;4973611;28;20064;-69
2021/12/10 14:33:34;;;;;;;30.85;12.23;;;;;;;;;;4973905;28;20394;-68
2021/12/10 14:36:07;;;;;;;32.72;12.25;;;;;;;;;;4991564;28;20428;-67
2021/12/10 14:38:49;;;;;;;32.13;12.40;;;;;;;;;;4973749;28;20387;-67
2021/12/10 14:41:31;;;;;;;32.70;13.23;;;;;;;;;;4991815;28;20391;-68
2021/12/10 14:44:02;;;;;;;33.83;12.65;;;;;;;;;;4991613;28;20053;-69
2021/12/10 14:46:39;;;;;;;35.95;13.68;;;;;;;;;;4991386;28;20428;-67
2021/12/10 14:49:27;;;;;;;31.90;12.25;;;;;;;;;;4991103;28;20505;-67
2021/12/10 14:52:30;;;;;;;36.13;13.55;;;;;;;;;;4991383;28;20528;-67